createdAt,value
2023-05-22T00:01:02.257Z,18.20
2023-05-22T00:02:04.887Z,18.20
2023-05-22T00:03:08.505Z,18.20
2023-05-22T00:04:13.474Z,18.20
2023-05-22T00:05:18.538Z,18.20
2023-05-22T00:06:22.168Z,18.20
2023-05-22T00:07:24.454Z,18.20
2023-05-22T00:08:29.405Z,18.20
2023-05-22T00:09:31.968Z,18.20
2023-05-22T00:10:34.125Z,18.20
2023-05-22T00:11:36.745Z,18.20
2023-05-22T00:12:39.252Z,18.20
2023-05-22T00:13:41.530Z,18.20
2023-05-22T00:14:43.755Z,18.20
2023-05-22T00:15:46.088Z,18.20
2023-05-22T00:16:48.518Z,18.20
2023-05-22T00:17:54.027Z,18.30
2023-05-22T00:18:57.465Z,18.20
2023-05-22T00:20:04.628Z,18.20
2023-05-22T00:21:06.776Z,18.20
2023-05-22T00:22:10.164Z,18.20
2023-05-22T00:23:15.412Z,18.20
2023-05-22T00:24:18.148Z,18.20
2023-05-22T00:25:20.774Z,18.20
2023-05-22T00:26:24.065Z,18.20
2023-05-22T00:27:26.377Z,18.20
2023-05-22T00:28:29.162Z,18.20
2023-05-22T00:29:31.603Z,18.20
2023-05-22T00:30:33.920Z,18.20
2023-05-22T00:31:36.244Z,18.20
2023-05-22T00:32:39.000Z,18.10
2023-05-22T00:33:41.331Z,18.20
2023-05-22T00:34:43.827Z,18.10
2023-05-22T00:35:46.240Z,18.20
2023-05-22T00:36:49.081Z,18.10
2023-05-22T00:37:51.447Z,18.10
2023-05-22T00:38:53.634Z,18.20
2023-05-22T00:39:55.947Z,18.10
2023-05-22T00:41:02.108Z,18.10
2023-05-22T00:42:04.739Z,18.10
2023-05-22T00:43:08.973Z,18.10
2023-05-22T00:44:12.312Z,18.10
2023-05-22T00:45:17.869Z,18.10
2023-05-22T00:46:24.596Z,18.10
2023-05-22T00:47:27.293Z,18.10
2023-05-22T00:48:29.543Z,18.10
2023-05-22T00:49:31.791Z,18.10
2023-05-22T00:50:34.138Z,18.10
2023-05-22T00:51:36.448Z,18.10
2023-05-22T00:52:43.762Z,18.10
2023-05-22T00:53:46.911Z,18.10
2023-05-22T00:54:50.979Z,18.10
2023-05-22T00:55:54.743Z,18.10
2023-05-22T00:56:57.494Z,18.10
2023-05-22T00:58:00.360Z,18.10
2023-05-22T00:59:02.978Z,18.00
2023-05-22T01:00:06.702Z,18.00
2023-05-22T01:01:11.625Z,18.00
2023-05-22T01:02:16.664Z,18.00
2023-05-22T01:03:45.320Z,18.00
2023-05-22T01:04:51.252Z,18.10
2023-05-22T01:05:54.022Z,18.10
2023-05-22T01:06:56.405Z,18.10
2023-05-22T01:07:59.002Z,18.10
2023-05-22T01:09:01.274Z,18.10
2023-05-22T01:10:05.016Z,18.10
2023-05-22T01:11:19.573Z,18.10
2023-05-22T01:12:33.010Z,18.00
2023-05-22T01:13:41.420Z,18.00
2023-05-22T01:14:52.264Z,18.00
2023-05-22T01:16:22.124Z,18.10
2023-05-22T01:17:24.821Z,18.00
2023-05-22T01:18:34.630Z,18.00
2023-05-22T01:20:14.502Z,18.00
2023-05-22T01:21:24.837Z,18.00
2023-05-22T01:23:04.360Z,18.00
2023-05-22T01:24:25.834Z,18.00
2023-05-22T01:25:37.048Z,17.90
2023-05-22T01:27:16.987Z,18.00
2023-05-22T01:28:37.865Z,18.00
2023-05-22T01:29:49.336Z,18.00
2023-05-22T01:30:54.580Z,18.00
2023-05-22T01:31:59.449Z,18.00
2023-05-22T01:33:03.878Z,18.00
2023-05-22T01:34:10.625Z,18.00
2023-05-22T01:35:19.177Z,17.90
2023-05-22T01:36:25.225Z,17.90
2023-05-22T01:37:28.354Z,18.00
2023-05-22T01:38:31.523Z,18.00
2023-05-22T01:39:36.487Z,18.00
2023-05-22T01:40:39.773Z,18.00
2023-05-22T01:41:42.517Z,18.00
2023-05-22T01:42:46.207Z,17.90
2023-05-22T01:43:48.654Z,17.90
2023-05-22T01:44:50.809Z,17.90
2023-05-22T01:45:53.226Z,18.00
2023-05-22T01:46:56.481Z,17.90
2023-05-22T01:47:59.438Z,17.90
2023-05-22T01:49:01.645Z,17.90
2023-05-22T01:50:05.849Z,18.00
2023-05-22T01:51:32.422Z,18.00
2023-05-22T01:53:02.239Z,18.00
2023-05-22T01:54:18.873Z,18.00
2023-05-22T01:55:30.909Z,18.00
2023-05-22T01:56:55.805Z,18.00
2023-05-22T01:58:45.583Z,18.00
2023-05-22T02:00:04.933Z,18.10
2023-05-22T02:01:21.234Z,18.10
2023-05-22T02:02:26.286Z,18.10
2023-05-22T02:03:32.263Z,18.10
2023-05-22T02:04:40.256Z,18.10
2023-05-22T02:05:44.113Z,18.10
2023-05-22T02:06:46.897Z,18.20
2023-05-22T02:07:50.380Z,18.10
2023-05-22T02:08:54.580Z,18.20
2023-05-22T02:09:58.112Z,18.20
2023-05-22T02:11:02.279Z,18.20
2023-05-22T02:12:05.032Z,18.20
2023-05-22T02:13:07.838Z,18.30
2023-05-22T02:14:12.285Z,18.30
2023-05-22T02:15:15.541Z,18.30
2023-05-22T02:16:19.453Z,18.30
2023-05-22T02:17:22.214Z,18.30
2023-05-22T02:18:31.172Z,18.40
2023-05-22T02:19:36.172Z,18.30
2023-05-22T02:20:38.515Z,18.30
2023-05-22T02:21:41.211Z,18.30
2023-05-22T02:22:44.690Z,18.30
2023-05-22T02:23:46.801Z,18.30
2023-05-22T02:24:50.192Z,18.30
2023-05-22T02:25:52.553Z,18.30
2023-05-22T02:26:54.719Z,18.30
2023-05-22T02:27:57.048Z,18.30
2023-05-22T02:28:59.427Z,18.30
2023-05-22T02:30:01.681Z,18.40
2023-05-22T02:31:04.248Z,18.30
2023-05-22T02:32:06.839Z,18.40
2023-05-22T02:33:09.463Z,18.30
2023-05-22T02:34:11.785Z,18.30
2023-05-22T02:35:14.100Z,18.30
2023-05-22T02:36:16.321Z,18.30
2023-05-22T02:37:22.214Z,18.30
2023-05-22T02:38:24.434Z,18.30
2023-05-22T02:39:27.782Z,18.30
2023-05-22T02:40:30.290Z,18.30
2023-05-22T02:41:32.521Z,18.30
2023-05-22T02:42:35.036Z,18.30
2023-05-22T02:43:37.585Z,18.30
2023-05-22T02:44:39.943Z,18.30
2023-05-22T02:45:42.299Z,18.30
2023-05-22T02:46:44.524Z,18.30
2023-05-22T02:47:47.217Z,18.30
2023-05-22T02:48:49.382Z,18.30
2023-05-22T02:49:53.427Z,18.30
2023-05-22T02:50:55.817Z,18.40
2023-05-22T02:51:58.015Z,18.40
2023-05-22T02:53:00.184Z,18.40
2023-05-22T02:54:02.538Z,18.40
2023-05-22T02:55:05.245Z,18.40
2023-05-22T02:56:12.185Z,18.40
2023-05-22T02:57:14.359Z,18.40
2023-05-22T02:58:18.051Z,18.40
2023-05-22T02:59:20.412Z,18.50
2023-05-22T03:00:23.235Z,18.50
2023-05-22T03:01:26.685Z,18.50
2023-05-22T03:02:32.399Z,18.50
2023-05-22T03:03:35.230Z,18.60
2023-05-22T03:04:38.712Z,18.60
2023-05-22T03:05:41.042Z,18.60
2023-05-22T03:06:46.395Z,18.60
2023-05-22T03:07:49.206Z,18.60
2023-05-22T03:08:51.726Z,18.60
2023-05-22T03:09:54.024Z,18.60
2023-05-22T03:10:57.154Z,18.60
2023-05-22T03:11:59.379Z,18.60
2023-05-22T03:13:01.839Z,18.60
2023-05-22T03:14:04.852Z,18.60
2023-05-22T03:15:07.512Z,18.60
2023-05-22T03:16:10.042Z,18.50
2023-05-22T03:17:49.046Z,18.50
2023-05-22T03:18:51.817Z,18.50
2023-05-22T03:19:54.135Z,18.50
2023-05-22T03:20:56.430Z,18.50
2023-05-22T03:21:58.616Z,18.50
2023-05-22T03:23:00.996Z,18.50
2023-05-22T03:24:03.806Z,18.50
2023-05-22T03:25:09.416Z,18.40
2023-05-22T03:26:11.808Z,18.40
2023-05-22T03:27:19.960Z,18.40
2023-05-22T03:28:23.440Z,18.30
2023-05-22T03:29:26.305Z,18.30
2023-05-22T03:30:28.526Z,18.30
2023-05-22T03:31:45.052Z,18.30
2023-05-22T03:32:49.733Z,18.30
2023-05-22T03:33:52.332Z,18.30
2023-05-22T03:34:54.515Z,18.30
2023-05-22T03:35:56.954Z,18.40
2023-05-22T03:36:59.403Z,18.40
2023-05-22T03:38:01.857Z,18.40
2023-05-22T03:39:05.044Z,18.50
2023-05-22T03:40:11.428Z,18.50
2023-05-22T03:41:13.676Z,18.50
2023-05-22T03:42:16.406Z,18.50
2023-05-22T03:43:19.071Z,18.50
2023-05-22T03:44:21.184Z,18.50
2023-05-22T03:45:24.398Z,18.50
2023-05-22T03:46:26.839Z,18.50
2023-05-22T03:47:29.254Z,18.50
2023-05-22T03:48:31.848Z,18.40
2023-05-22T03:49:33.982Z,18.50
2023-05-22T03:50:36.230Z,18.50
2023-05-22T03:51:38.508Z,18.40
2023-05-22T03:52:40.812Z,18.50
2023-05-22T03:53:43.004Z,18.50
2023-05-22T03:54:45.240Z,18.50
2023-05-22T03:55:47.558Z,18.50
2023-05-22T03:56:50.230Z,18.50
2023-05-22T03:57:52.446Z,18.50
2023-05-22T03:58:54.774Z,18.50
2023-05-22T03:59:57.410Z,18.50
2023-05-22T04:01:01.130Z,18.50
2023-05-22T04:02:03.627Z,18.60
2023-05-22T04:03:07.547Z,18.60
2023-05-22T04:04:12.341Z,18.70
2023-05-22T04:05:14.842Z,18.70
2023-05-22T04:06:17.786Z,18.70
2023-05-22T04:07:21.577Z,18.70
2023-05-22T04:08:23.897Z,18.70
2023-05-22T04:09:27.815Z,18.70
2023-05-22T04:10:33.504Z,18.80
2023-05-22T04:11:35.907Z,18.80
2023-05-22T04:12:38.080Z,18.80
2023-05-22T04:13:40.535Z,18.80
2023-05-22T04:14:42.795Z,18.80
2023-05-22T04:15:47.901Z,18.80
2023-05-22T04:16:50.579Z,18.90
2023-05-22T04:17:53.610Z,18.90
2023-05-22T04:18:56.392Z,18.90
2023-05-22T04:19:58.806Z,18.90
2023-05-22T04:21:01.026Z,18.90
2023-05-22T04:22:03.332Z,19.00
2023-05-22T04:23:07.324Z,19.00
2023-05-22T04:24:09.566Z,19.00
2023-05-22T04:25:11.900Z,19.10
2023-05-22T04:26:14.239Z,19.10
2023-05-22T04:27:16.798Z,19.10
2023-05-22T04:28:22.445Z,19.20
2023-05-22T04:29:24.877Z,19.20
2023-05-22T04:30:26.955Z,19.20
2023-05-22T04:31:30.576Z,19.30
2023-05-22T04:32:33.043Z,19.30
2023-05-22T04:33:36.592Z,19.30
2023-05-22T04:34:38.882Z,19.30
2023-05-22T04:35:41.059Z,19.30
2023-05-22T04:36:45.390Z,19.30
2023-05-22T04:38:57.704Z,19.30
2023-05-22T04:40:06.311Z,19.40
2023-05-22T04:41:11.295Z,19.30
2023-05-22T04:42:14.635Z,19.30
2023-05-22T04:43:18.884Z,19.30
2023-05-22T04:44:23.609Z,19.30
2023-05-22T04:45:28.874Z,19.30
2023-05-22T04:46:36.588Z,19.30
2023-05-22T04:47:41.692Z,19.40
2023-05-22T04:48:44.312Z,19.30
2023-05-22T04:49:46.686Z,19.30
2023-05-22T04:50:58.590Z,19.30
2023-05-22T04:52:04.901Z,19.30
2023-05-22T04:53:07.056Z,19.30
2023-05-22T04:54:09.607Z,19.30
2023-05-22T04:55:18.699Z,19.30
2023-05-22T04:56:31.949Z,19.40
2023-05-22T04:57:44.773Z,19.40
2023-05-22T04:58:49.991Z,19.40
2023-05-22T04:59:55.011Z,19.50
2023-05-22T05:00:58.006Z,19.50
2023-05-22T05:02:00.268Z,19.50
2023-05-22T05:03:02.983Z,19.50
2023-05-22T05:04:05.935Z,19.50
2023-05-22T05:05:08.813Z,19.60
2023-05-22T05:06:12.750Z,19.50
2023-05-22T05:07:17.707Z,19.50
2023-05-22T05:08:20.213Z,19.50
2023-05-22T05:09:23.005Z,19.60
2023-05-22T05:10:27.158Z,19.50
2023-05-22T05:11:29.948Z,19.60
2023-05-22T05:12:32.171Z,19.60
2023-05-22T05:13:34.408Z,19.60
2023-05-22T05:14:36.629Z,19.60
2023-05-22T05:15:39.482Z,19.60
2023-05-22T05:16:41.728Z,19.60
2023-05-22T05:17:44.085Z,19.60
2023-05-22T05:18:47.190Z,19.60
2023-05-22T05:19:49.418Z,19.60
2023-05-22T05:20:51.848Z,19.70
2023-05-22T05:21:53.964Z,19.70
2023-05-22T05:22:57.456Z,19.60
2023-05-22T05:23:59.653Z,19.60
2023-05-22T05:25:02.170Z,19.60
2023-05-22T05:26:04.686Z,19.60
2023-05-22T05:27:07.247Z,19.60
2023-05-22T05:28:12.952Z,19.60
2023-05-22T05:29:17.255Z,19.60
2023-05-22T05:30:32.258Z,19.60
2023-05-22T05:31:46.316Z,19.60
2023-05-22T05:32:58.279Z,19.50
2023-05-22T05:34:11.206Z,19.60
2023-05-22T05:35:43.224Z,19.60
2023-05-22T05:36:48.065Z,19.60
2023-05-22T05:37:51.911Z,19.70
2023-05-22T05:38:54.945Z,19.80
2023-05-22T05:39:57.522Z,19.90
2023-05-22T05:41:00.333Z,20.00
2023-05-22T05:42:03.291Z,20.00
2023-05-22T05:43:07.334Z,20.10
2023-05-22T05:44:11.158Z,20.10
2023-05-22T05:45:14.220Z,20.10
2023-05-22T05:46:17.716Z,20.00
2023-05-22T05:47:24.168Z,20.00
2023-05-22T05:48:27.014Z,20.10
2023-05-22T05:49:29.366Z,20.10
2023-05-22T05:50:32.851Z,20.10
2023-05-22T05:51:35.217Z,20.00
2023-05-22T05:52:38.581Z,20.10
2023-05-22T05:53:46.417Z,20.30
2023-05-22T05:54:49.005Z,20.40
2023-05-22T05:55:55.760Z,20.60
2023-05-22T05:56:58.275Z,20.50
2023-05-22T05:58:00.725Z,20.40
2023-05-22T05:59:13.923Z,20.40
2023-05-22T06:00:36.596Z,20.40
2023-05-22T06:01:39.952Z,20.30
2023-05-22T06:02:50.968Z,20.20
2023-05-22T06:04:13.962Z,20.20
2023-05-22T06:05:19.376Z,20.10
2023-05-22T06:06:26.363Z,20.10
2023-05-22T06:07:54.775Z,20.00
2023-05-22T06:08:57.349Z,19.90
2023-05-22T06:10:07.173Z,19.80
2023-05-22T06:11:17.445Z,19.80
2023-05-22T06:12:28.861Z,19.90
2023-05-22T06:13:30.965Z,19.90
2023-05-22T06:14:33.543Z,20.00
2023-05-22T06:15:35.899Z,19.90
2023-05-22T06:16:38.200Z,20.00
2023-05-22T06:17:40.973Z,20.10
2023-05-22T06:18:43.178Z,20.00
2023-05-22T06:19:45.711Z,20.10
2023-05-22T06:20:48.953Z,20.00
2023-05-22T06:21:52.218Z,20.10
2023-05-22T06:22:57.745Z,20.10
2023-05-22T06:24:09.475Z,20.10
2023-05-22T06:25:12.627Z,20.10
2023-05-22T06:26:15.312Z,20.20
2023-05-22T06:27:18.864Z,20.20
2023-05-22T06:28:21.467Z,20.20
2023-05-22T06:29:26.446Z,20.20
2023-05-22T06:30:39.553Z,20.30
2023-05-22T06:31:47.018Z,20.30
2023-05-22T06:32:52.724Z,20.30
2023-05-22T06:33:55.622Z,20.30
2023-05-22T06:34:59.808Z,20.30
2023-05-22T06:36:04.325Z,20.50
2023-05-22T06:37:07.352Z,20.50
2023-05-22T06:38:14.699Z,20.50
2023-05-22T06:39:18.996Z,20.60
2023-05-22T06:40:30.304Z,20.60
2023-05-22T06:41:38.590Z,20.60
2023-05-22T06:42:44.715Z,20.70
2023-05-22T06:44:08.362Z,20.80
2023-05-22T06:45:14.766Z,21.00
2023-05-22T06:46:26.783Z,21.00
2023-05-22T06:47:33.539Z,21.10
2023-05-22T06:48:36.269Z,21.20
2023-05-22T06:49:52.869Z,21.30
2023-05-22T06:50:56.763Z,21.30
2023-05-22T06:51:59.793Z,21.30
2023-05-22T06:53:02.026Z,21.30
2023-05-22T06:54:07.277Z,21.40
2023-05-22T06:55:11.636Z,21.40
2023-05-22T06:56:26.890Z,21.40
2023-05-22T06:57:39.140Z,21.40
2023-05-22T06:58:41.803Z,21.40
2023-05-22T06:59:44.063Z,21.40
2023-05-22T07:01:09.309Z,21.40
2023-05-22T07:02:17.661Z,21.40
2023-05-22T07:03:45.800Z,21.30
2023-05-22T07:05:09.653Z,21.30
2023-05-22T07:06:27.713Z,21.40
2023-05-22T07:07:29.937Z,21.40
2023-05-22T07:08:32.478Z,21.50
2023-05-22T07:09:35.316Z,21.50
2023-05-22T07:10:42.098Z,21.50
2023-05-22T07:11:44.443Z,21.60
2023-05-22T07:12:48.121Z,21.60
2023-05-22T07:13:51.127Z,21.70
2023-05-22T07:14:53.627Z,21.80
2023-05-22T07:15:58.419Z,21.80
2023-05-22T07:17:00.877Z,21.80
2023-05-22T07:18:09.819Z,21.80
2023-05-22T07:19:15.630Z,21.70
2023-05-22T07:20:17.925Z,21.70
2023-05-22T07:21:31.925Z,21.70
2023-05-22T07:22:34.260Z,21.80
2023-05-22T07:23:36.372Z,21.80
2023-05-22T07:24:38.560Z,21.90
2023-05-22T07:25:42.606Z,21.90
2023-05-22T07:26:48.656Z,22.00
2023-05-22T07:27:52.411Z,22.40
2023-05-22T07:28:56.863Z,22.70
2023-05-22T07:29:59.308Z,22.80
2023-05-22T07:31:01.936Z,23.00
2023-05-22T07:32:06.280Z,23.10
2023-05-22T07:33:08.648Z,23.40
2023-05-22T07:34:11.092Z,23.60
2023-05-22T07:35:14.676Z,23.50
2023-05-22T07:36:19.065Z,23.50
2023-05-22T07:37:22.424Z,23.60
2023-05-22T07:38:24.926Z,23.90
2023-05-22T07:39:33.335Z,24.00
2023-05-22T07:40:35.580Z,24.10
2023-05-22T07:41:37.898Z,24.10
2023-05-22T07:42:42.142Z,24.20
2023-05-22T07:43:46.788Z,24.20
2023-05-22T07:44:52.417Z,24.50
2023-05-22T07:45:56.103Z,25.00
2023-05-22T07:47:01.350Z,25.20
2023-05-22T07:48:05.111Z,25.40
2023-05-22T07:49:11.121Z,25.50
2023-05-22T07:50:15.950Z,25.60
2023-05-22T07:51:20.870Z,26.10
2023-05-22T07:52:26.101Z,26.40
2023-05-22T07:53:28.400Z,26.20
2023-05-22T07:54:33.274Z,26.10
2023-05-22T07:55:35.542Z,26.20
2023-05-22T07:56:39.927Z,26.40
2023-05-22T07:57:43.653Z,26.30
2023-05-22T07:59:03.561Z,26.30
2023-05-22T08:00:13.784Z,26.30
2023-05-22T08:01:16.293Z,26.40
2023-05-22T08:02:19.282Z,26.40
2023-05-22T08:03:24.036Z,26.70
2023-05-22T08:04:27.017Z,26.40
2023-05-22T08:05:29.356Z,26.20
2023-05-22T08:06:31.815Z,26.20
2023-05-22T08:07:34.384Z,26.20
2023-05-22T08:08:36.777Z,26.70
2023-05-22T08:09:39.106Z,27.10
2023-05-22T08:11:01.735Z,27.40
2023-05-22T08:12:03.615Z,27.60
2023-05-22T08:13:08.316Z,28.00
2023-05-22T08:14:10.901Z,28.10
2023-05-22T08:15:13.069Z,27.90
2023-05-22T08:16:15.251Z,28.10
2023-05-22T08:17:17.540Z,28.30
2023-05-22T08:18:20.880Z,28.30
2023-05-22T08:19:23.119Z,28.60
2023-05-22T08:20:25.936Z,28.60
2023-05-22T08:21:28.457Z,28.40
2023-05-22T08:22:31.469Z,28.60
2023-05-22T08:23:36.422Z,28.10
2023-05-22T08:24:38.676Z,28.10
2023-05-22T08:25:41.321Z,28.40
2023-05-22T08:26:43.861Z,28.40
2023-05-22T08:28:01.030Z,28.50
2023-05-22T08:29:03.334Z,28.80
2023-05-22T08:30:43.599Z,28.40
2023-05-22T08:31:54.054Z,28.80
2023-05-22T08:32:56.647Z,29.10
2023-05-22T08:34:04.689Z,29.30
2023-05-22T08:35:07.428Z,29.10
2023-05-22T08:36:09.915Z,29.00
2023-05-22T08:37:14.169Z,28.90
2023-05-22T08:38:17.708Z,29.10
2023-05-22T08:39:20.088Z,29.40
2023-05-22T08:40:22.881Z,29.40
2023-05-22T08:41:25.201Z,29.30
2023-05-22T08:42:27.482Z,29.30
2023-05-22T08:43:30.020Z,29.50
2023-05-22T08:44:32.319Z,29.50
2023-05-22T08:45:35.135Z,29.40
2023-05-22T08:46:41.913Z,29.30
2023-05-22T08:47:46.098Z,29.60
2023-05-22T08:48:48.542Z,29.00
2023-05-22T08:49:52.373Z,29.00
2023-05-22T08:50:58.342Z,28.90
2023-05-22T08:52:06.236Z,28.60
2023-05-22T08:53:11.475Z,29.00
2023-05-22T08:54:16.170Z,28.60
2023-05-22T08:55:19.914Z,28.70
2023-05-22T08:56:22.471Z,28.00
2023-05-22T08:57:24.880Z,28.00
2023-05-22T08:58:27.864Z,28.20
2023-05-22T08:59:30.485Z,28.40
2023-05-22T09:00:33.562Z,27.40
2023-05-22T09:01:35.884Z,27.70
2023-05-22T09:02:39.505Z,27.80
2023-05-22T09:03:43.396Z,27.40
2023-05-22T09:04:46.028Z,27.60
2023-05-22T09:05:49.466Z,27.80
2023-05-22T09:06:52.205Z,28.00
2023-05-22T09:08:02.671Z,28.30
2023-05-22T09:09:07.968Z,28.70
2023-05-22T09:10:10.964Z,28.60
2023-05-22T09:11:13.499Z,28.80
2023-05-22T09:12:15.837Z,29.00
2023-05-22T09:13:29.224Z,28.90
2023-05-22T09:14:41.935Z,28.10
2023-05-22T09:15:44.157Z,28.60
2023-05-22T09:16:48.532Z,29.20
2023-05-22T09:17:51.403Z,29.20
2023-05-22T09:18:53.668Z,28.80
2023-05-22T09:20:00.258Z,28.30
2023-05-22T09:21:04.907Z,28.50
2023-05-22T09:22:09.222Z,28.50
2023-05-22T09:23:17.980Z,28.50
2023-05-22T09:24:20.406Z,28.70
2023-05-22T09:25:23.079Z,28.90
2023-05-22T09:26:29.384Z,29.20
2023-05-22T09:27:31.582Z,29.00
2023-05-22T09:28:35.523Z,29.20
2023-05-22T09:29:52.916Z,29.30
2023-05-22T09:30:56.083Z,29.70
2023-05-22T09:32:00.389Z,30.20
2023-05-22T09:33:04.525Z,30.50
2023-05-22T09:34:08.143Z,30.60
2023-05-22T09:35:10.513Z,30.00
2023-05-22T09:36:12.775Z,30.00
2023-05-22T09:37:15.824Z,30.10
2023-05-22T09:38:18.046Z,29.80
2023-05-22T09:39:20.501Z,29.80
2023-05-22T09:40:22.883Z,29.90
2023-05-22T09:41:25.264Z,30.00
2023-05-22T09:42:28.440Z,30.20
2023-05-22T09:43:30.553Z,30.20
2023-05-22T09:44:32.870Z,30.30
2023-05-22T09:45:36.264Z,30.20
2023-05-22T09:46:47.420Z,29.80
2023-05-22T09:47:51.124Z,30.10
2023-05-22T09:48:53.806Z,30.50
2023-05-22T09:49:58.904Z,30.50
2023-05-22T09:51:01.893Z,30.30
2023-05-22T09:52:07.986Z,30.20
2023-05-22T09:53:12.861Z,30.50
2023-05-22T09:54:16.404Z,30.60
2023-05-22T09:55:22.864Z,30.50
2023-05-22T09:56:38.605Z,30.30
2023-05-22T09:57:44.202Z,30.40
2023-05-22T09:58:47.966Z,30.30
2023-05-22T09:59:55.175Z,30.40
2023-05-22T10:00:58.297Z,30.60
2023-05-22T10:02:02.258Z,30.70
2023-05-22T10:03:16.083Z,31.00
2023-05-22T10:04:22.020Z,31.20
2023-05-22T10:05:29.292Z,30.70
2023-05-22T10:06:34.810Z,30.60
2023-05-22T10:07:44.069Z,30.60
2023-05-22T10:08:52.875Z,30.90
2023-05-22T10:10:04.695Z,31.00
2023-05-22T10:11:07.441Z,30.60
2023-05-22T10:12:16.346Z,30.50
2023-05-22T10:13:19.149Z,29.90
2023-05-22T10:14:22.262Z,29.40
2023-05-22T10:15:24.979Z,28.70
2023-05-22T10:16:28.082Z,28.30
2023-05-22T10:17:31.153Z,27.90
2023-05-22T10:18:34.131Z,27.80
2023-05-22T10:19:38.596Z,27.90
2023-05-22T10:20:42.565Z,27.70
2023-05-22T10:21:47.412Z,27.80
2023-05-22T10:22:49.860Z,28.40
2023-05-22T10:23:52.540Z,28.30
2023-05-22T10:24:55.651Z,28.30
2023-05-22T10:25:58.738Z,28.10
2023-05-22T10:27:33.216Z,27.80
2023-05-22T10:28:43.275Z,27.80
2023-05-22T10:30:00.570Z,27.50
2023-05-22T10:31:14.755Z,27.50
2023-05-22T10:32:59.175Z,27.30
2023-05-22T10:34:07.291Z,27.10
2023-05-22T10:35:25.452Z,27.10
2023-05-22T10:37:16.966Z,26.80
2023-05-22T10:38:26.759Z,26.50
2023-05-22T10:40:02.496Z,26.20
2023-05-22T10:41:05.155Z,26.20
2023-05-22T10:42:15.557Z,26.20
2023-05-22T10:43:17.830Z,26.10
2023-05-22T10:44:20.214Z,26.00
2023-05-22T10:46:44.860Z,25.80
2023-05-22T10:49:26.342Z,26.10
2023-05-22T10:51:06.216Z,26.70
2023-05-22T10:52:14.695Z,27.60
2023-05-22T10:53:34.469Z,28.40
2023-05-22T10:54:53.874Z,28.40
2023-05-22T10:56:16.626Z,28.50
2023-05-22T10:57:18.979Z,28.20
2023-05-22T10:58:31.216Z,28.20
2023-05-22T10:59:36.817Z,28.40
2023-05-22T11:00:39.180Z,28.20
2023-05-22T11:01:41.607Z,28.70
2023-05-22T11:03:17.079Z,29.00
2023-05-22T11:04:25.088Z,29.20
2023-05-22T11:05:29.514Z,29.60
2023-05-22T11:06:34.413Z,29.70
2023-05-22T11:07:42.598Z,30.10
2023-05-22T11:08:47.510Z,30.20
2023-05-22T11:09:49.671Z,30.30
2023-05-22T11:10:56.257Z,30.30
2023-05-22T11:12:13.457Z,30.50
2023-05-22T11:13:17.708Z,30.50
2023-05-22T11:14:21.081Z,30.80
2023-05-22T11:15:32.426Z,30.60
2023-05-22T11:16:34.870Z,30.50
2023-05-22T11:17:39.891Z,30.50
2023-05-22T11:18:45.209Z,30.30
2023-05-22T11:20:05.415Z,29.70
2023-05-22T11:21:12.502Z,30.10
2023-05-22T11:22:18.847Z,30.50
2023-05-22T11:23:21.096Z,30.70
2023-05-22T11:24:23.969Z,30.10
2023-05-22T11:25:27.947Z,29.80
2023-05-22T11:26:30.416Z,29.40
2023-05-22T11:27:32.991Z,29.40
2023-05-22T11:28:35.448Z,29.10
2023-05-22T11:29:38.450Z,29.00
2023-05-22T11:30:41.786Z,28.90
2023-05-22T11:31:46.440Z,28.40
2023-05-22T11:32:48.873Z,28.10
2023-05-22T11:33:51.020Z,27.80
2023-05-22T11:34:53.963Z,27.80
2023-05-22T11:35:57.232Z,27.80
2023-05-22T11:37:00.037Z,27.80
2023-05-22T11:38:06.398Z,27.90
2023-05-22T11:39:09.228Z,27.80
2023-05-22T11:40:15.785Z,27.90
2023-05-22T11:41:18.073Z,27.50
2023-05-22T11:42:20.273Z,27.50
2023-05-22T11:43:30.237Z,27.40
2023-05-22T11:44:32.342Z,27.40
2023-05-22T11:45:37.861Z,27.50
2023-05-22T11:46:40.532Z,27.60
2023-05-22T11:47:43.770Z,27.80
2023-05-22T11:48:47.249Z,27.90
2023-05-22T11:49:49.560Z,28.10
2023-05-22T11:50:51.802Z,28.50
2023-05-22T11:51:54.322Z,28.70
2023-05-22T11:52:56.690Z,28.80
2023-05-22T11:53:59.101Z,29.00
2023-05-22T11:55:01.837Z,29.20
2023-05-22T11:56:05.476Z,29.40
2023-05-22T11:57:08.788Z,29.40
2023-05-22T11:58:11.145Z,29.20
2023-05-22T11:59:13.366Z,29.20
2023-05-22T12:00:16.154Z,29.30
2023-05-22T12:01:18.706Z,29.40
2023-05-22T12:02:23.040Z,29.40
2023-05-22T12:03:26.058Z,29.30
2023-05-22T12:04:28.356Z,29.20
2023-05-22T12:05:32.587Z,28.60
2023-05-22T12:06:35.079Z,28.70
2023-05-22T12:07:37.766Z,28.60
2023-05-22T12:08:41.036Z,28.50
2023-05-22T12:09:43.462Z,28.70
2023-05-22T12:10:53.129Z,29.00
2023-05-22T12:11:59.241Z,29.20
2023-05-22T12:13:02.724Z,29.60
2023-05-22T12:14:05.291Z,29.90
2023-05-22T12:15:08.021Z,30.10
2023-05-22T12:16:22.110Z,30.30
2023-05-22T12:17:24.552Z,30.60
2023-05-22T12:18:27.650Z,30.70
2023-05-22T12:19:30.191Z,30.80
2023-05-22T12:20:32.716Z,30.20
2023-05-22T12:21:36.585Z,29.90
2023-05-22T12:22:43.669Z,29.70
2023-05-22T12:23:50.957Z,29.50
2023-05-22T12:24:53.231Z,29.70
2023-05-22T12:26:04.541Z,30.00
2023-05-22T12:27:10.139Z,30.00
2023-05-22T12:28:12.260Z,30.10
2023-05-22T12:29:14.479Z,30.10
2023-05-22T12:30:18.216Z,30.20
2023-05-22T12:31:22.204Z,30.30
2023-05-22T12:32:25.871Z,30.30
2023-05-22T12:33:29.314Z,30.80
2023-05-22T12:34:44.999Z,31.10
2023-05-22T12:35:52.216Z,31.30
2023-05-22T12:36:54.372Z,31.10
2023-05-22T12:37:58.372Z,30.70
2023-05-22T12:39:00.743Z,30.60
2023-05-22T12:40:05.061Z,30.60
2023-05-22T12:41:07.663Z,30.60
2023-05-22T12:42:09.960Z,30.90
2023-05-22T12:43:12.169Z,31.00
2023-05-22T12:44:16.452Z,31.10
2023-05-22T12:45:19.132Z,30.90
2023-05-22T12:46:21.293Z,31.00
2023-05-22T12:47:24.595Z,31.00
2023-05-22T12:48:26.890Z,31.20
2023-05-22T12:49:29.106Z,31.30
2023-05-22T12:50:31.568Z,31.40
2023-05-22T12:51:36.673Z,31.40
2023-05-22T12:52:38.827Z,31.40
2023-05-22T12:53:41.009Z,30.80
2023-05-22T12:54:43.519Z,30.80
2023-05-22T12:55:45.865Z,31.10
2023-05-22T12:56:48.038Z,31.40
2023-05-22T12:57:50.277Z,31.30
2023-05-22T12:58:52.527Z,31.20
2023-05-22T12:59:54.663Z,30.90
2023-05-22T13:00:56.850Z,30.90
2023-05-22T13:02:02.401Z,31.10
2023-05-22T13:03:06.994Z,31.10
2023-05-22T13:04:09.389Z,31.20
2023-05-22T13:05:11.759Z,31.20
2023-05-22T13:06:14.146Z,30.90
2023-05-22T13:07:16.429Z,30.90
2023-05-22T13:08:18.537Z,31.00
2023-05-22T13:09:21.255Z,30.80
2023-05-22T13:10:23.407Z,30.70
2023-05-22T13:11:26.699Z,30.60
2023-05-22T13:12:31.116Z,30.50
2023-05-22T13:13:33.466Z,30.40
2023-05-22T13:14:35.787Z,30.30
2023-05-22T13:15:38.277Z,30.10
2023-05-22T13:16:40.883Z,29.90
2023-05-22T13:17:43.158Z,29.80
2023-05-22T13:18:46.198Z,29.60
2023-05-22T13:19:48.497Z,29.30
2023-05-22T13:20:50.679Z,29.30
2023-05-22T13:21:52.922Z,29.20
2023-05-22T13:22:55.146Z,29.00
2023-05-22T13:23:57.377Z,28.80
2023-05-22T13:24:59.721Z,28.60
2023-05-22T13:26:02.349Z,28.40
2023-05-22T13:27:04.749Z,28.30
2023-05-22T13:28:06.985Z,28.10
2023-05-22T13:29:10.212Z,28.20
2023-05-22T13:30:12.901Z,28.20
2023-05-22T13:31:15.187Z,28.10
2023-05-22T13:32:19.750Z,27.90
2023-05-22T13:33:25.870Z,28.00
2023-05-22T13:34:29.205Z,27.80
2023-05-22T13:35:32.225Z,27.60
2023-05-22T13:36:34.605Z,27.70
2023-05-22T13:37:37.806Z,27.80
2023-05-22T13:38:40.013Z,27.70
2023-05-22T13:39:42.212Z,27.60
2023-05-22T13:40:48.208Z,27.90
2023-05-22T13:41:52.826Z,27.90
2023-05-22T13:42:55.261Z,27.90
2023-05-22T13:43:57.592Z,27.70
2023-05-22T13:44:59.998Z,27.60
2023-05-22T13:46:05.651Z,27.40
2023-05-22T13:47:08.205Z,27.30
2023-05-22T13:48:11.331Z,27.10
2023-05-22T13:49:13.876Z,27.10
2023-05-22T13:50:16.049Z,27.10
2023-05-22T13:51:18.307Z,27.10
2023-05-22T13:52:21.009Z,27.00
2023-05-22T13:53:23.105Z,26.50
2023-05-22T13:54:25.441Z,25.90
2023-05-22T13:55:30.050Z,25.50
2023-05-22T13:56:32.418Z,24.90
2023-05-22T13:57:35.194Z,24.40
2023-05-22T13:58:37.427Z,24.10
2023-05-22T13:59:39.723Z,23.80
2023-05-22T14:00:42.117Z,23.50
2023-05-22T14:01:44.496Z,23.40
2023-05-22T14:02:46.887Z,23.30
2023-05-22T14:03:49.149Z,23.10
2023-05-22T14:04:52.046Z,22.80
2023-05-22T14:05:54.287Z,22.70